createdAt,value
2018-09-23T00:01:26.186Z,15.20
2018-09-23T00:03:53.701Z,15.30
2018-09-23T00:06:21.410Z,15.20
2018-09-23T00:08:48.916Z,15.20
2018-09-23T00:11:16.485Z,15.20
2018-09-23T00:13:44.075Z,15.10
2018-09-23T00:16:11.941Z,15.10
2018-09-23T00:18:39.545Z,15.20
2018-09-23T00:21:07.206Z,15.20
2018-09-23T00:23:34.753Z,15.20
2018-09-23T00:26:02.607Z,15.20
2018-09-23T00:28:30.184Z,15.20
2018-09-23T00:30:57.798Z,15.30
2018-09-23T00:33:25.339Z,15.30
2018-09-23T00:35:52.949Z,15.30
2018-09-23T00:38:20.471Z,15.30
2018-09-23T00:40:48.085Z,15.20
2018-09-23T00:43:15.642Z,15.00
2018-09-23T00:45:43.237Z,15.00
2018-09-23T00:48:10.922Z,14.90
2018-09-23T00:50:38.659Z,15.00
2018-09-23T00:53:06.239Z,15.10
2018-09-23T00:55:33.994Z,15.10
2018-09-23T00:58:01.472Z,15.20
2018-09-23T01:00:29.064Z,15.10
2018-09-23T01:02:56.635Z,15.10
2018-09-23T01:05:24.266Z,15.10
2018-09-23T01:07:52.747Z,15.10
2018-09-23T01:10:20.581Z,15.00
2018-09-23T01:12:48.368Z,14.90
2018-09-23T01:15:16.077Z,14.80
2018-09-23T01:17:43.746Z,14.70
2018-09-23T01:20:11.434Z,14.70
2018-09-23T01:22:39.298Z,14.60
2018-09-23T01:25:06.948Z,14.60
2018-09-23T01:27:34.626Z,14.60
2018-09-23T01:30:02.713Z,14.50
2018-09-23T01:32:30.647Z,14.50
2018-09-23T01:35:00.776Z,14.50
2018-09-23T01:37:31.877Z,14.30
2018-09-23T01:40:01.822Z,14.20
2018-09-23T01:42:34.991Z,14.20
2018-09-23T01:45:12.904Z,14.20
2018-09-23T01:47:44.438Z,14.10
2018-09-23T01:50:16.669Z,14.10
2018-09-23T01:52:51.485Z,14.00
2018-09-23T01:55:24.457Z,13.90
2018-09-23T01:57:55.806Z,14.00
2018-09-23T02:00:30.638Z,13.90
2018-09-23T02:03:02.645Z,13.90
2018-09-23T02:08:02.961Z,13.90
2018-09-23T02:10:40.135Z,14.00
2018-09-23T02:13:07.885Z,13.90
2018-09-23T02:15:37.916Z,14.00
2018-09-23T02:18:06.185Z,13.80
2018-09-23T02:20:37.727Z,13.80
2018-09-23T02:23:09.350Z,13.80
2018-09-23T02:25:40.942Z,13.80
2018-09-23T02:28:13.698Z,13.70
2018-09-23T02:30:45.371Z,13.60
2018-09-23T02:33:15.049Z,13.60
2018-09-23T02:35:46.722Z,13.60
2018-09-23T02:38:17.832Z,13.60
2018-09-23T02:40:47.468Z,13.60
2018-09-23T02:43:16.346Z,13.50
2018-09-23T02:45:48.626Z,13.60
2018-09-23T02:48:18.153Z,13.60
2018-09-23T02:50:47.490Z,13.60
2018-09-23T02:53:18.066Z,13.60
2018-09-23T02:55:46.943Z,13.60
2018-09-23T02:58:16.310Z,13.50
2018-09-23T03:00:45.437Z,13.50
2018-09-23T03:03:14.614Z,13.50
2018-09-23T03:05:44.453Z,13.50
2018-09-23T03:08:14.057Z,13.50
2018-09-23T03:10:42.142Z,13.40
2018-09-23T03:13:10.468Z,13.40
2018-09-23T03:15:38.776Z,13.50
2018-09-23T03:18:07.065Z,13.50
2018-09-23T03:20:36.459Z,13.50
2018-09-23T03:23:04.207Z,13.50
2018-09-23T03:25:32.801Z,13.50
2018-09-23T03:28:00.963Z,13.50
2018-09-23T03:30:29.036Z,13.60
2018-09-23T03:32:57.985Z,13.70
2018-09-23T03:35:25.786Z,13.70
2018-09-23T03:37:53.470Z,13.70
2018-09-23T03:40:21.680Z,13.80
2018-09-23T03:42:50.588Z,13.80
2018-09-23T03:45:18.300Z,13.80
2018-09-23T03:47:46.140Z,13.90
2018-09-23T03:50:14.084Z,13.90
2018-09-23T03:52:42.882Z,14.00
2018-09-23T03:55:12.174Z,13.90
2018-09-23T03:57:39.938Z,14.00
2018-09-23T04:00:08.070Z,14.00
2018-09-23T04:02:36.679Z,14.10
2018-09-23T04:05:05.553Z,14.10
2018-09-23T04:07:33.630Z,14.10
2018-09-23T04:10:02.581Z,14.20
2018-09-23T04:12:31.310Z,14.30
2018-09-23T04:14:59.560Z,14.30
2018-09-23T04:17:28.578Z,14.30
2018-09-23T04:19:57.596Z,14.40
2018-09-23T04:22:27.999Z,14.40
2018-09-23T04:24:57.553Z,14.40
2018-09-23T04:27:26.370Z,14.50
2018-09-23T04:29:54.970Z,14.60
2018-09-23T04:32:23.586Z,14.60
2018-09-23T04:34:51.982Z,14.70
2018-09-23T04:37:19.875Z,14.70
2018-09-23T04:39:48.894Z,14.70
2018-09-23T04:42:34.586Z,14.70
2018-09-23T04:45:40.697Z,14.60
2018-09-23T04:48:16.208Z,14.70
2018-09-23T04:51:57.077Z,14.70
2018-09-23T04:54:28.448Z,14.70
2018-09-23T04:57:00.133Z,14.70
2018-09-23T05:02:35.880Z,14.60
2018-09-23T05:05:06.823Z,14.70
2018-09-23T05:07:37.461Z,14.80
2018-09-23T05:10:08.443Z,14.80
2018-09-23T05:12:38.790Z,14.80
2018-09-23T05:15:08.055Z,14.90
2018-09-23T05:17:44.642Z,14.90
2018-09-23T05:20:15.969Z,14.90
2018-09-23T05:22:46.547Z,15.00
2018-09-23T05:25:21.290Z,15.00
2018-09-23T05:27:56.897Z,15.10
2018-09-23T05:30:28.247Z,15.10
2018-09-23T05:33:00.383Z,15.10
2018-09-23T05:35:31.330Z,15.10
2018-09-23T05:38:06.412Z,15.20
2018-09-23T05:40:39.746Z,15.20
2018-09-23T05:43:10.461Z,15.20
2018-09-23T05:45:39.184Z,15.30
2018-09-23T05:48:09.498Z,15.30
2018-09-23T05:50:40.065Z,15.30
2018-09-23T05:53:10.250Z,15.40
2018-09-23T05:55:42.196Z,15.40
2018-09-23T05:58:13.393Z,15.50
2018-09-23T06:00:50.819Z,15.50
2018-09-23T06:03:22.828Z,15.60
2018-09-23T06:05:52.235Z,15.70
2018-09-23T06:08:24.101Z,15.70
2018-09-23T06:10:53.075Z,15.70
2018-09-23T06:13:22.201Z,15.80
2018-09-23T06:15:51.512Z,15.80
2018-09-23T06:18:19.584Z,15.80
2018-09-23T06:20:47.818Z,15.90
2018-09-23T06:23:17.458Z,16.00
2018-09-23T06:25:45.526Z,16.00
2018-09-23T06:28:14.403Z,16.10
2018-09-23T06:30:43.321Z,16.10
2018-09-23T06:33:11.510Z,16.20
2018-09-23T06:35:39.752Z,16.30
2018-09-23T06:38:08.319Z,16.40
2018-09-23T06:40:37.455Z,16.50
2018-09-23T06:43:06.533Z,16.50
2018-09-23T06:45:36.109Z,16.60
2018-09-23T06:48:04.219Z,16.60
2018-09-23T06:50:32.960Z,16.70
2018-09-23T06:53:04.159Z,16.80
2018-09-23T06:55:31.946Z,16.90
2018-09-23T06:57:59.925Z,17.00
2018-09-23T07:00:28.169Z,17.10
2018-09-23T07:02:57.317Z,17.10
2018-09-23T07:05:25.584Z,17.20
2018-09-23T07:07:55.141Z,17.30
2018-09-23T07:10:24.957Z,17.30
2018-09-23T07:12:53.068Z,17.40
2018-09-23T07:15:22.011Z,17.50
2018-09-23T07:17:52.332Z,17.60
2018-09-23T07:20:22.749Z,17.70
2018-09-23T07:22:51.658Z,17.70
2018-09-23T07:25:19.921Z,17.80
2018-09-23T07:27:48.650Z,17.90
2018-09-23T07:30:16.508Z,17.90
2018-09-23T07:32:44.180Z,18.00
2018-09-23T07:35:12.370Z,18.00
2018-09-23T07:37:42.748Z,18.10
2018-09-23T07:40:11.053Z,18.20
2018-09-23T07:42:39.153Z,18.30
2018-09-23T07:45:07.044Z,18.40
2018-09-23T07:47:35.483Z,18.40
2018-09-23T07:50:04.363Z,18.50
2018-09-23T07:52:35.174Z,18.50
2018-09-23T07:55:06.330Z,18.60
2018-09-23T07:57:37.213Z,18.70
2018-09-23T08:00:09.122Z,18.70
2018-09-23T08:02:39.947Z,18.80
2018-09-23T08:05:11.190Z,18.90
2018-09-23T08:07:44.411Z,18.90
2018-09-23T08:10:24.453Z,18.90
2018-09-23T08:12:59.057Z,19.00
2018-09-23T08:15:30.394Z,19.00
2018-09-23T08:18:01.462Z,19.10
2018-09-23T08:20:30.396Z,19.10
2018-09-23T08:23:08.206Z,19.20
2018-09-23T08:25:49.416Z,19.20
2018-09-23T08:28:30.113Z,19.30
2018-09-23T08:31:05.691Z,19.40
2018-09-23T08:33:38.716Z,19.60
2018-09-23T08:36:18.146Z,19.70
2018-09-23T08:38:59.685Z,19.80
2018-09-23T08:41:42.544Z,19.80
2018-09-23T08:44:24.162Z,19.90
2018-09-23T08:47:01.981Z,19.90
2018-09-23T08:49:43.964Z,19.80
2018-09-23T08:52:23.229Z,19.80
2018-09-23T08:55:01.983Z,19.70
2018-09-23T08:57:42.908Z,19.60
2018-09-23T09:00:24.947Z,19.60
2018-09-23T09:03:02.133Z,19.60
2018-09-23T09:05:44.009Z,19.70
2018-09-23T09:08:36.333Z,19.70
2018-09-23T09:11:18.932Z,19.70
2018-09-23T09:13:59.662Z,19.70
2018-09-23T09:16:44.207Z,19.90
2018-09-23T09:19:31.140Z,19.90
2018-09-23T09:22:21.195Z,20.00
2018-09-23T09:24:59.255Z,20.00
2018-09-23T09:30:55.645Z,20.30
2018-09-23T09:33:51.657Z,20.50
2018-09-23T09:36:48.439Z,20.70
2018-09-23T09:39:35.033Z,20.80
2018-09-23T09:53:38.408Z,20.80
2018-09-23T09:56:19.187Z,20.70
2018-09-23T09:59:03.258Z,20.80
2018-09-23T10:01:49.027Z,20.80
2018-09-23T10:04:44.296Z,20.80
2018-09-23T10:16:26.248Z,21.00
2018-09-23T10:19:04.522Z,21.10
2018-09-23T10:21:54.307Z,21.10
2018-09-23T10:24:35.506Z,21.20
2018-09-23T10:27:21.120Z,21.30
2018-09-23T10:32:49.296Z,21.50
2018-09-23T10:35:17.851Z,21.60
2018-09-23T10:37:50.568Z,21.70
2018-09-23T10:40:18.126Z,21.80
2018-09-23T10:43:08.294Z,21.80
2018-09-23T10:45:59.614Z,21.90
2018-09-23T10:48:38.390Z,21.90
2018-09-23T10:51:16.309Z,21.90
2018-09-23T10:54:08.620Z,22.00
2018-09-23T10:59:37.966Z,22.10
2018-09-23T11:02:17.785Z,22.10
2018-09-23T11:04:46.732Z,22.20
2018-09-23T11:07:18.888Z,22.30
2018-09-23T11:09:49.050Z,22.50
2018-09-23T11:12:27.723Z,22.60
2018-09-23T11:14:59.101Z,22.70
2018-09-23T11:17:30.209Z,23.00
2018-09-23T11:20:00.145Z,23.30
2018-09-23T11:22:35.164Z,23.50
2018-09-23T11:25:15.985Z,23.60
2018-09-23T11:28:05.618Z,23.80
2018-09-23T11:35:03.211Z,23.90
2018-09-23T11:37:32.768Z,24.10
2018-09-23T11:40:03.745Z,24.30
2018-09-23T11:42:42.734Z,24.40
2018-09-23T11:45:12.994Z,24.50
2018-09-23T11:47:41.402Z,24.50
2018-09-23T11:50:17.009Z,24.50
2018-09-23T11:56:02.497Z,24.60
2018-09-23T12:15:26.349Z,24.70
2018-09-23T12:17:55.993Z,24.60
2018-09-23T12:20:25.976Z,24.50
2018-09-23T12:22:54.252Z,24.50
2018-09-23T12:25:25.341Z,24.50
2018-09-23T12:27:53.693Z,24.60
2018-09-23T12:30:22.223Z,24.60
2018-09-23T12:32:52.201Z,24.80
2018-09-23T12:35:21.127Z,24.80
2018-09-23T12:37:53.407Z,24.90
2018-09-23T12:43:01.965Z,25.00
2018-09-23T12:45:31.857Z,25.00
2018-09-23T12:48:01.835Z,25.00
2018-09-23T12:50:32.983Z,25.00
2018-09-23T12:53:54.252Z,25.00
2018-09-23T12:56:25.071Z,25.10
2018-09-23T12:58:55.798Z,25.30
2018-09-23T13:01:28.831Z,25.50
2018-09-23T13:04:03.520Z,25.50
2018-09-23T13:06:43.760Z,25.50
2018-09-23T13:09:14.492Z,25.40
2018-09-23T13:11:56.861Z,25.30
2018-09-23T13:14:25.793Z,25.10
2018-09-23T13:17:00.213Z,24.90
2018-09-23T13:19:30.004Z,24.90
2018-09-23T13:21:59.348Z,24.70
2018-09-23T13:24:30.319Z,24.60
2018-09-23T13:27:00.050Z,24.50
2018-09-23T13:29:29.195Z,24.50
2018-09-23T13:31:58.609Z,24.50
2018-09-23T13:34:29.955Z,24.40
2018-09-23T13:36:59.649Z,24.40
2018-09-23T13:39:29.193Z,24.30
2018-09-23T13:44:41.541Z,24.20
2018-09-23T13:47:19.289Z,24.20
2018-09-23T13:49:50.957Z,24.20
2018-09-23T13:52:26.803Z,24.00
2018-09-23T13:55:01.847Z,24.10
2018-09-23T13:57:36.707Z,24.00
2018-09-23T14:00:10.412Z,23.90
2018-09-23T14:02:38.596Z,23.90
2018-09-23T14:05:14.520Z,24.00
2018-09-23T14:07:48.707Z,24.00
2018-09-23T14:10:23.321Z,24.10
2018-09-23T14:12:57.081Z,24.00
2018-09-23T14:15:27.342Z,24.00
2018-09-23T14:18:01.754Z,24.00
2018-09-23T14:20:32.805Z,24.00
2018-09-23T14:23:01.969Z,24.00
2018-09-23T14:25:32.362Z,24.20
2018-09-23T14:31:02.194Z,24.30
2018-09-23T14:33:31.652Z,24.40
2018-09-23T14:36:01.662Z,24.40
2018-09-23T14:38:37.951Z,24.40
2018-09-23T14:41:06.828Z,24.40
2018-09-23T14:43:38.372Z,24.50
2018-09-23T14:46:16.723Z,24.50
2018-09-23T14:48:51.187Z,24.50
2018-09-23T14:51:23.325Z,24.50
2018-09-23T14:53:53.037Z,24.60
2018-09-23T14:56:26.847Z,24.60
2018-09-23T14:58:58.519Z,24.60
2018-09-23T15:01:31.425Z,24.60
2018-09-23T15:06:40.009Z,24.90
2018-09-23T15:09:12.204Z,24.80
2018-09-23T15:11:46.811Z,24.80
2018-09-23T15:14:15.093Z,24.80
2018-09-23T15:16:52.653Z,24.80
2018-09-23T15:19:25.860Z,24.80
2018-09-23T15:21:53.427Z,24.80
2018-09-23T15:24:21.003Z,24.80
2018-09-23T15:26:58.689Z,24.80
2018-09-23T15:29:41.545Z,24.90
2018-09-23T15:32:14.487Z,24.90
2018-09-23T15:34:47.549Z,24.90
2018-09-23T15:37:30.533Z,24.60
2018-09-23T15:40:03.813Z,24.50
2018-09-23T15:42:44.454Z,24.30
2018-09-23T15:45:19.726Z,24.20
2018-09-23T15:47:58.597Z,24.10
2018-09-23T15:50:38.268Z,24.00
2018-09-23T15:53:27.622Z,23.90
2018-09-23T15:56:05.079Z,23.80
2018-09-23T15:58:44.734Z,23.70
2018-09-23T16:01:20.796Z,23.70
2018-09-23T16:04:03.850Z,23.70
2018-09-23T16:06:39.988Z,23.60
2018-09-23T16:09:14.265Z,23.60
2018-09-23T16:11:53.628Z,23.60
2018-09-23T16:14:26.358Z,23.60
2018-09-23T16:17:01.658Z,23.60
2018-09-23T16:19:39.682Z,23.60
2018-09-23T16:22:08.321Z,23.50
2018-09-23T16:24:52.292Z,23.50
2018-09-23T16:27:29.828Z,23.20
2018-09-23T16:29:57.793Z,23.10
2018-09-23T16:32:26.379Z,22.80
2018-09-23T16:35:00.030Z,22.50
2018-09-23T16:37:32.321Z,22.30
2018-09-23T16:40:09.455Z,22.00
2018-09-23T16:42:37.134Z,21.00
2018-09-23T16:45:04.733Z,19.90
2018-09-23T16:47:32.418Z,19.40
2018-09-23T16:50:00.029Z,18.50
2018-09-23T16:52:27.641Z,18.00
2018-09-23T16:54:55.361Z,17.80
2018-09-23T16:57:23.292Z,17.70
2018-09-23T16:59:50.905Z,17.50
2018-09-23T17:02:18.457Z,17.40
2018-09-23T17:04:46.086Z,17.40
2018-09-23T17:07:13.753Z,17.20
2018-09-23T17:09:41.361Z,17.20
2018-09-23T17:12:08.986Z,17.20
2018-09-23T17:14:36.581Z,17.10
2018-09-23T17:17:04.196Z,17.10
2018-09-23T17:19:31.850Z,17.00
2018-09-23T17:21:59.547Z,16.90
2018-09-23T17:24:27.151Z,16.90
2018-09-23T17:26:54.778Z,16.80
2018-09-23T17:29:22.423Z,16.80
2018-09-23T17:31:50.102Z,16.80
2018-09-23T17:34:17.688Z,16.70
2018-09-23T17:36:45.299Z,16.70
2018-09-23T17:39:12.862Z,16.70
2018-09-23T17:41:40.831Z,16.70
2018-09-23T17:44:08.484Z,16.60
2018-09-23T17:46:36.335Z,16.60
2018-09-23T17:49:03.899Z,16.50
2018-09-23T17:51:31.899Z,16.50
2018-09-23T17:53:59.465Z,16.50
2018-09-23T17:56:26.994Z,16.40
2018-09-23T17:58:54.675Z,16.40
2018-09-23T18:01:22.201Z,16.40
2018-09-23T18:03:49.836Z,16.30
2018-09-23T18:06:17.463Z,16.30
2018-09-23T18:08:45.110Z,16.30
2018-09-23T18:11:12.661Z,16.20
2018-09-23T18:13:40.285Z,16.10
2018-09-23T18:16:07.891Z,16.10
2018-09-23T18:18:35.527Z,16.00
2018-09-23T18:21:03.095Z,16.00
2018-09-23T18:23:30.640Z,15.90
2018-09-23T18:25:58.234Z,15.60
2018-09-23T18:28:25.948Z,15.40
2018-09-23T18:30:53.591Z,15.10
2018-09-23T18:33:21.131Z,14.80
2018-09-23T18:35:48.746Z,14.60
2018-09-23T18:38:16.316Z,14.50
2018-09-23T18:40:44.063Z,14.10
2018-09-23T18:43:11.770Z,14.00
2018-09-23T18:45:39.386Z,13.90
2018-09-23T18:48:07.074Z,13.80
2018-09-23T18:50:34.611Z,13.50
2018-09-23T18:53:07.840Z,13.60
2018-09-23T18:55:42.968Z,13.40
2018-09-23T18:58:10.581Z,13.20
2018-09-23T19:00:38.646Z,13.10
2018-09-23T19:03:06.423Z,13.00
2018-09-23T19:05:34.292Z,12.80
2018-09-23T19:08:01.960Z,12.80
2018-09-23T19:10:30.388Z,12.80
2018-09-23T19:13:03.676Z,12.70
2018-09-23T19:15:32.143Z,12.70
2018-09-23T19:17:59.734Z,12.70
2018-09-23T19:20:27.326Z,12.70
2018-09-23T19:23:00.947Z,12.60
2018-09-23T19:25:28.512Z,12.50
2018-09-23T19:27:56.313Z,12.40
2018-09-23T19:30:23.912Z,12.40
2018-09-23T19:32:51.791Z,12.30
2018-09-23T19:35:19.450Z,12.30
2018-09-23T19:37:47.116Z,12.30
2018-09-23T19:40:14.855Z,12.20
2018-09-23T19:42:42.765Z,12.20
2018-09-23T19:45:10.446Z,12.20
2018-09-23T19:47:38.162Z,12.20
2018-09-23T19:50:05.820Z,12.20
2018-09-23T19:52:33.547Z,12.20
2018-09-23T19:55:01.622Z,12.10
2018-09-23T19:57:29.415Z,12.20
2018-09-23T19:59:57.250Z,12.30
2018-09-23T20:02:24.994Z,12.30
2018-09-23T20:04:53.110Z,12.30
2018-09-23T20:07:20.999Z,12.30
2018-09-23T20:09:48.620Z,12.40
2018-09-23T20:12:16.558Z,12.40
2018-09-23T20:14:44.282Z,12.30
2018-09-23T20:17:11.998Z,12.30
2018-09-23T20:19:39.642Z,12.10
2018-09-23T20:22:08.412Z,12.10
2018-09-23T20:24:36.330Z,12.00
2018-09-23T20:27:04.026Z,12.00
2018-09-23T20:29:31.831Z,11.90
2018-09-23T20:31:59.631Z,11.80
2018-09-23T20:34:27.378Z,11.80
2018-09-23T20:36:54.964Z,11.80
2018-09-23T20:39:22.673Z,11.80
2018-09-23T20:41:50.516Z,11.80
2018-09-23T20:44:18.259Z,11.90
2018-09-23T20:46:45.959Z,11.90
2018-09-23T20:49:13.742Z,12.00
2018-09-23T20:51:42.582Z,11.90
2018-09-23T20:54:10.338Z,11.90
2018-09-23T20:56:38.089Z,11.90
2018-09-23T20:59:05.769Z,11.90
2018-09-23T21:01:33.519Z,11.80
2018-09-23T21:04:01.367Z,11.80
2018-09-23T21:06:29.257Z,11.80
2018-09-23T21:08:56.925Z,11.80
2018-09-23T21:11:24.637Z,11.70
2018-09-23T21:13:52.379Z,11.70
2018-09-23T21:16:20.099Z,11.70
2018-09-23T21:18:47.734Z,11.60
2018-09-23T21:21:15.545Z,11.50
2018-09-23T21:23:43.170Z,11.40
2018-09-23T21:26:10.975Z,11.40
2018-09-23T21:28:38.761Z,11.40
2018-09-23T21:31:06.590Z,11.40
2018-09-23T21:33:34.429Z,11.40
2018-09-23T21:36:02.234Z,11.40
2018-09-23T21:38:30.055Z,11.30
2018-09-23T21:40:57.663Z,11.30
2018-09-23T21:43:25.408Z,11.20
2018-09-23T21:45:53.051Z,11.20
2018-09-23T21:48:20.781Z,11.10
2018-09-23T21:50:48.629Z,11.00
2018-09-23T21:53:16.345Z,11.00
2018-09-23T21:55:44.030Z,11.00
2018-09-23T21:58:11.855Z,11.00
2018-09-23T22:00:42.065Z,11.00
2018-09-23T22:03:10.820Z,11.00
2018-09-23T22:05:38.913Z,11.00
2018-09-23T22:08:06.786Z,11.00
2018-09-23T22:10:34.799Z,11.00
2018-09-23T22:13:02.661Z,11.00
2018-09-23T22:15:30.334Z,11.00
2018-09-23T22:17:58.051Z,11.00
2018-09-23T22:20:26.345Z,10.90
2018-09-23T22:22:54.570Z,10.90
2018-09-23T22:25:22.753Z,10.90
2018-09-23T22:27:50.768Z,10.90
2018-09-23T22:30:18.532Z,10.90
2018-09-23T22:32:46.230Z,10.80
2018-09-23T22:35:14.092Z,10.90
2018-09-23T22:37:41.883Z,10.90
2018-09-23T22:40:10.077Z,11.00
2018-09-23T22:42:38.344Z,11.00
2018-09-23T22:45:06.835Z,11.00
2018-09-23T22:47:34.929Z,11.10
2018-09-23T22:50:03.363Z,11.10
2018-09-23T22:52:31.054Z,11.20
2018-09-23T22:54:58.808Z,11.20
2018-09-23T22:57:26.446Z,11.30
2018-09-23T22:59:54.228Z,11.30
2018-09-23T23:02:21.932Z,11.40
2018-09-23T23:04:49.779Z,11.30
2018-09-23T23:07:17.866Z,11.10
2018-09-23T23:09:45.669Z,11.00
2018-09-23T23:12:13.463Z,11.00
2018-09-23T23:14:45.659Z,10.90
2018-09-23T23:17:13.435Z,10.80
2018-09-23T23:19:41.241Z,10.80
2018-09-23T23:22:08.838Z,10.80
2018-09-23T23:24:36.535Z,10.80
2018-09-23T23:27:04.306Z,10.70
2018-09-23T23:29:32.062Z,10.70
2018-09-23T23:31:59.985Z,10.60
2018-09-23T23:34:27.783Z,10.60
2018-09-23T23:36:55.474Z,10.60
2018-09-23T23:39:23.115Z,10.50
2018-09-23T23:41:50.906Z,10.50
2018-09-23T23:44:18.577Z,10.40
2018-09-23T23:46:46.326Z,10.50
2018-09-23T23:49:14.002Z,10.50
2018-09-23T23:51:41.746Z,10.50
2018-09-23T23:54:09.514Z,10.50
2018-09-23T23:56:37.292Z,10.50
2018-09-23T23:59:05.499Z,10.40
